sensor_id;sensor_type;location;lat;lon;timestamp;pressure;altitude;pressure_sealevel;temperature;humidity
43741;BME280;29352;48.708;9.290;2023-07-22T00:02:18;97783.50;;;5.13;88.01
43741;BME280;29352;48.708;9.290;2023-07-22T00:04:44;97786.53;;;5.10;88.19
43741;BME280;29352;48.708;9.290;2023-07-22T00:07:09;97782.97;;;5.54;87.52
43741;BME280;29352;48.708;9.290;2023-07-22T00:09:35;97783.81;;;5.69;86.46
43741;BME280;29352;48.708;9.290;2023-07-22T00:12:00;97786.38;;;5.84;85.25
43741;BME280;29352;48.708;9.290;2023-07-22T00:14:26;97790.88;;;5.33;85.85
43741;BME280;29352;48.708;9.290;2023-07-22T00:16:51;97790.72;;;5.92;87.49
43741;BME280;29352;48.708;9.290;2023-07-22T00:19:17;97791.69;;;6.06;86.45
43741;BME280;29352;48.708;9.290;2023-07-22T00:21:42;97780.63;;;6.02;87.50
43741;BME280;29352;48.708;9.290;2023-07-22T00:24:08;97785.53;;;6.27;85.58
43741;BME280;29352;48.708;9.290;2023-07-22T00:26:34;97790.72;;;5.92;85.04
43741;BME280;29352;48.708;9.290;2023-07-22T00:28:59;97787.78;;;6.02;84.83
43741;BME280;29352;48.708;9.290;2023-07-22T00:31:25;97789.41;;;6.03;85.88
43741;BME280;29352;48.708;9.290;2023-07-22T00:33:51;97787.63;;;5.88;84.00
43741;BME280;29352;48.708;9.290;2023-07-22T00:36:16;97794.03;;;5.73;84.13
43741;BME280;29352;48.708;9.290;2023-07-22T00:38:42;97782.44;;;5.44;85.35
43741;BME280;29352;48.708;9.290;2023-07-22T00:41:07;97785.19;;;5.51;86.09
43741;BME280;29352;48.708;9.290;2023-07-22T00:43:33;97782.97;;;5.69;85.38
43741;BME280;29352;48.708;9.290;2023-07-22T00:45:59;97782.19;;;5.39;86.07
43741;BME280;29352;48.708;9.290;2023-07-22T00:48:25;97777.97;;;4.93;86.93
43741;BME280;29352;48.708;9.290;2023-07-22T00:50:52;97777.63;;;4.96;87.71
43741;BME280;29352;48.708;9.290;2023-07-22T00:53:19;97785.47;;;5.41;85.90
43741;BME280;29352;48.708;9.290;2023-07-22T00:55:45;97778.41;;;5.12;86.23
43741;BME280;29352;48.708;9.290;2023-07-22T00:58:10;97779.31;;;4.60;88.02
43741;BME280;29352;48.708;9.290;2023-07-22T01:00:36;97775.78;;;4.67;87.89
43741;BME280;29352;48.708;9.290;2023-07-22T01:03:03;97772.56;;;4.57;88.40
43741;BME280;29352;48.708;9.290;2023-07-22T01:05:30;97779.31;;;4.74;87.58
43741;BME280;29352;48.708;9.290;2023-07-22T01:07:56;97774.13;;;4.66;87.48
43741;BME280;29352;48.708;9.290;2023-07-22T01:10:22;97773.06;;;4.76;87.68
43741;BME280;29352;48.708;9.290;2023-07-22T01:12:48;97766.91;;;4.60;88.10
43741;BME280;29352;48.708;9.290;2023-07-22T01:15:14;97773.47;;;4.64;87.85
43741;BME280;29352;48.708;9.290;2023-07-22T01:17:40;97765.28;;;4.59;89.51
43741;BME280;29352;48.708;9.290;2023-07-22T01:20:06;97766.47;;;4.57;88.66
43741;BME280;29352;48.708;9.290;2023-07-22T01:22:36;97760.72;;;4.53;89.06
43741;BME280;29352;48.708;9.290;2023-07-22T01:25:02;97757.63;;;4.64;88.43
43741;BME280;29352;48.708;9.290;2023-07-22T01:27:28;97756.25;;;4.54;88.61
43741;BME280;29352;48.708;9.290;2023-07-22T01:29:54;97762.47;;;4.76;90.07
43741;BME280;29352;48.708;9.290;2023-07-22T01:32:20;97748.31;;;4.68;89.95
43741;BME280;29352;48.708;9.290;2023-07-22T01:34:45;97754.44;;;4.98;87.87
43741;BME280;29352;48.708;9.290;2023-07-22T01:37:11;97756.72;;;4.87;87.91
43741;BME280;29352;48.708;9.290;2023-07-22T01:39:36;97750.84;;;4.47;88.98
43741;BME280;29352;48.708;9.290;2023-07-22T01:42:02;97752.06;;;4.59;89.18
43741;BME280;29352;48.708;9.290;2023-07-22T01:44:29;97757.25;;;4.67;88.58
43741;BME280;29352;48.708;9.290;2023-07-22T01:46:55;97753.81;;;4.52;88.94
43741;BME280;29352;48.708;9.290;2023-07-22T01:49:20;97751.94;;;4.38;88.10
43741;BME280;29352;48.708;9.290;2023-07-22T01:51:46;97755.66;;;4.43;88.44
43741;BME280;29352;48.708;9.290;2023-07-22T01:54:12;97755.91;;;4.34;88.72
43741;BME280;29352;48.708;9.290;2023-07-22T01:56:38;97747.16;;;4.33;88.93
43741;BME280;29352;48.708;9.290;2023-07-22T01:59:05;97747.19;;;3.95;89.08
43741;BME280;29352;48.708;9.290;2023-07-22T02:01:31;97748.38;;;3.93;89.02
43741;BME280;29352;48.708;9.290;2023-07-22T02:03:57;97749.69;;;3.89;90.77
43741;BME280;29352;48.708;9.290;2023-07-22T02:06:22;97747.75;;;4.06;89.50
43741;BME280;29352;48.708;9.290;2023-07-22T02:08:48;97753.34;;;4.11;89.77
43741;BME280;29352;48.708;9.290;2023-07-22T02:11:14;97749.25;;;4.23;89.45
43741;BME280;29352;48.708;9.290;2023-07-22T02:13:39;97752.16;;;4.13;89.39
43741;BME280;29352;48.708;9.290;2023-07-22T02:16:05;97751.78;;;4.16;90.72
43741;BME280;29352;48.708;9.290;2023-07-22T02:18:30;97746.91;;;4.43;88.12
43741;BME280;29352;48.708;9.290;2023-07-22T02:20:57;97755.06;;;4.18;89.80
43741;BME280;29352;48.708;9.290;2023-07-22T02:23:23;97759.50;;;4.03;89.88
43741;BME280;29352;48.708;9.290;2023-07-22T02:25:53;97759.13;;;4.06;88.93
43741;BME280;29352;48.708;9.290;2023-07-22T02:28:21;97763.00;;;3.95;88.72
43741;BME280;29352;48.708;9.290;2023-07-22T02:30:52;97764.34;;;3.99;88.84
43741;BME280;29352;48.708;9.290;2023-07-22T02:33:20;97762.63;;;3.84;89.00
43741;BME280;29352;48.708;9.290;2023-07-22T02:35:47;97769.16;;;3.96;89.17
43741;BME280;29352;48.708;9.290;2023-07-22T02:38:13;97772.88;;;3.78;88.87
43741;BME280;29352;48.708;9.290;2023-07-22T02:40:42;97766.78;;;4.01;89.22
43741;BME280;29352;48.708;9.290;2023-07-22T02:43:07;97768.06;;;4.05;88.35
43741;BME280;29352;48.708;9.290;2023-07-22T02:45:34;97768.50;;;3.94;88.65
43741;BME280;29352;48.708;9.290;2023-07-22T02:48:00;97762.16;;;4.03;88.55
43741;BME280;29352;48.708;9.290;2023-07-22T02:50:25;97763.56;;;3.91;90.01
43741;BME280;29352;48.708;9.290;2023-07-22T02:52:51;97768.66;;;3.92;89.72
43741;BME280;29352;48.708;9.290;2023-07-22T02:55:18;97766.50;;;3.96;89.21
43741;BME280;29352;48.708;9.290;2023-07-22T02:57:44;97765.19;;;3.92;90.18
43741;BME280;29352;48.708;9.290;2023-07-22T03:00:16;97765.16;;;4.00;90.84
43741;BME280;29352;48.708;9.290;2023-07-22T03:02:53;97773.22;;;4.21;89.11
43741;BME280;29352;48.708;9.290;2023-07-22T03:05:21;97763.91;;;3.88;90.41
43741;BME280;29352;48.708;9.290;2023-07-22T03:07:46;97761.94;;;3.90;90.16
43741;BME280;29352;48.708;9.290;2023-07-22T03:10:12;97759.44;;;4.11;88.45
43741;BME280;29352;48.708;9.290;2023-07-22T03:12:37;97759.31;;;4.27;90.18
43741;BME280;29352;48.708;9.290;2023-07-22T03:15:03;97763.13;;;4.02;91.08
43741;BME280;29352;48.708;9.290;2023-07-22T03:17:30;97761.16;;;4.04;89.92
43741;BME280;29352;48.708;9.290;2023-07-22T03:19:56;97755.44;;;4.15;88.51
43741;BME280;29352;48.708;9.290;2023-07-22T03:22:21;97762.66;;;4.21;88.28
43741;BME280;29352;48.708;9.290;2023-07-22T03:24:47;97759.66;;;4.24;90.04
43741;BME280;29352;48.708;9.290;2023-07-22T03:27:14;97761.38;;;4.32;89.11
43741;BME280;29352;48.708;9.290;2023-07-22T03:29:41;97757.94;;;4.32;89.54
43741;BME280;29352;48.708;9.290;2023-07-22T03:32:07;97756.00;;;4.25;89.51
43741;BME280;29352;48.708;9.290;2023-07-22T03:34:33;97762.88;;;4.12;89.65
43741;BME280;29352;48.708;9.290;2023-07-22T03:36:58;97751.75;;;4.39;91.64
43741;BME280;29352;48.708;9.290;2023-07-22T03:39:24;97758.66;;;4.25;91.03
43741;BME280;29352;48.708;9.290;2023-07-22T03:41:50;97758.66;;;4.25;90.86
43741;BME280;29352;48.708;9.290;2023-07-22T03:44:16;97759.53;;;4.70;90.09
43741;BME280;29352;48.708;9.290;2023-07-22T03:46:41;97758.53;;;4.19;87.56
43741;BME280;29352;48.708;9.290;2023-07-22T03:49:07;97756.44;;;4.14;86.82
43741;BME280;29352;48.708;9.290;2023-07-22T03:51:33;97758.47;;;3.89;88.01
43741;BME280;29352;48.708;9.290;2023-07-22T03:53:59;97759.16;;;3.60;90.85
43741;BME280;29352;48.708;9.290;2023-07-22T03:56:25;97762.91;;;3.89;90.01
43741;BME280;29352;48.708;9.290;2023-07-22T03:58:51;97768.13;;;3.97;92.67
43741;BME280;29352;48.708;9.290;2023-07-22T04:01:18;97766.38;;;4.50;90.98
43741;BME280;29352;48.708;9.290;2023-07-22T04:03:45;97763.22;;;4.46;90.27
43741;BME280;29352;48.708;9.290;2023-07-22T04:06:10;97761.91;;;4.80;89.52
43741;BME280;29352;48.708;9.290;2023-07-22T04:08:36;97760.78;;;5.19;88.01
43741;BME280;29352;48.708;9.290;2023-07-22T04:11:02;97763.88;;;5.22;87.21
43741;BME280;29352;48.708;9.290;2023-07-22T04:13:27;97756.06;;;5.14;87.28
43741;BME280;29352;48.708;9.290;2023-07-22T04:15:53;97758.09;;;5.49;86.39
43741;BME280;29352;48.708;9.290;2023-07-22T04:18:20;97749.59;;;6.17;84.49
43741;BME280;29352;48.708;9.290;2023-07-22T04:20:47;97750.59;;;6.16;82.52
43741;BME280;29352;48.708;9.290;2023-07-22T04:23:15;97746.09;;;6.38;80.83
43741;BME280;29352;48.708;9.290;2023-07-22T04:25:42;97751.88;;;5.99;82.74
43741;BME280;29352;48.708;9.290;2023-07-22T04:28:09;97751.19;;;6.12;82.79
43741;BME280;29352;48.708;9.290;2023-07-22T04:30:35;97751.94;;;6.34;80.48
43741;BME280;29352;48.708;9.290;2023-07-22T04:33:02;97752.53;;;6.01;83.25
43741;BME280;29352;48.708;9.290;2023-07-22T04:35:31;97744.84;;;6.97;80.86
43741;BME280;29352;48.708;9.290;2023-07-22T04:37:57;97752.06;;;7.17;80.54
43741;BME280;29352;48.708;9.290;2023-07-22T04:40:23;97744.59;;;7.40;80.19
43741;BME280;29352;48.708;9.290;2023-07-22T04:42:50;97750.25;;;7.24;80.13
43741;BME280;29352;48.708;9.290;2023-07-22T04:45:17;97750.00;;;7.12;80.80
43741;BME280;29352;48.708;9.290;2023-07-22T04:47:46;97750.38;;;7.64;80.16
43741;BME280;29352;48.708;9.290;2023-07-22T04:50:14;97749.03;;;8.27;76.84
43741;BME280;29352;48.708;9.290;2023-07-22T04:52:42;97750.84;;;8.60;76.57
43741;BME280;29352;48.708;9.290;2023-07-22T04:55:11;97758.72;;;9.13;75.33
43741;BME280;29352;48.708;9.290;2023-07-22T04:57:38;97759.53;;;9.07;74.78
43741;BME280;29352;48.708;9.290;2023-07-22T05:00:07;97764.47;;;9.04;73.66
43741;BME280;29352;48.708;9.290;2023-07-22T05:02:40;97776.91;;;9.23;74.12
43741;BME280;29352;48.708;9.290;2023-07-22T05:05:06;97763.66;;;9.55;73.81
43741;BME280;29352;48.708;9.290;2023-07-22T05:07:32;97764.97;;;8.74;74.81
43741;BME280;29352;48.708;9.290;2023-07-22T05:09:58;97770.81;;;9.03;74.14
43741;BME280;29352;48.708;9.290;2023-07-22T05:12:23;97766.88;;;9.18;74.38
43741;BME280;29352;48.708;9.290;2023-07-22T05:14:49;97766.50;;;9.91;71.49
43741;BME280;29352;48.708;9.290;2023-07-22T05:17:14;97773.97;;;9.38;74.58
43741;BME280;29352;48.708;9.290;2023-07-22T05:19:40;97769.88;;;10.12;71.01
43741;BME280;29352;48.708;9.290;2023-07-22T05:22:06;97779.38;;;9.11;73.99
43741;BME280;29352;48.708;9.290;2023-07-22T05:24:32;97779.34;;;9.24;73.76
43741;BME280;29352;48.708;9.290;2023-07-22T05:26:58;97788.81;;;9.14;73.95
43741;BME280;29352;48.708;9.290;2023-07-22T05:29:23;97782.38;;;10.36;69.16
43741;BME280;29352;48.708;9.290;2023-07-22T05:31:49;97792.88;;;10.06;71.60
43741;BME280;29352;48.708;9.290;2023-07-22T05:34:14;97778.09;;;11.71;66.71
43741;BME280;29352;48.708;9.290;2023-07-22T05:36:40;97780.13;;;10.65;68.69
43741;BME280;29352;48.708;9.290;2023-07-22T05:39:05;97787.22;;;11.51;68.81
43741;BME280;29352;48.708;9.290;2023-07-22T05:41:33;97793.69;;;10.63;69.69
43741;BME280;29352;48.708;9.290;2023-07-22T05:43:59;97795.50;;;11.92;68.01
43741;BME280;29352;48.708;9.290;2023-07-22T05:46:24;97792.31;;;11.53;66.92
43741;BME280;29352;48.708;9.290;2023-07-22T05:48:50;97784.03;;;12.80;65.17
43741;BME280;29352;48.708;9.290;2023-07-22T05:51:17;97792.38;;;12.37;65.83
43741;BME280;29352;48.708;9.290;2023-07-22T05:53:43;97796.31;;;12.22;67.51
43741;BME280;29352;48.708;9.290;2023-07-22T05:56:08;97796.81;;;13.13;64.19
43741;BME280;29352;48.708;9.290;2023-07-22T05:58:34;97801.09;;;12.20;65.98
43741;BME280;29352;48.708;9.290;2023-07-22T06:01:00;97798.69;;;12.66;65.48
43741;BME280;29352;48.708;9.290;2023-07-22T06:03:25;97805.66;;;14.23;62.28
43741;BME280;29352;48.708;9.290;2023-07-22T06:05:51;97803.09;;;15.18;60.18
43741;BME280;29352;48.708;9.290;2023-07-22T06:08:16;97803.16;;;14.84;60.30
43741;BME280;29352;48.708;9.290;2023-07-22T06:10:42;97815.75;;;14.33;61.73
43741;BME280;29352;48.708;9.290;2023-07-22T06:13:08;97821.38;;;14.03;62.71
43741;BME280;29352;48.708;9.290;2023-07-22T06:15:33;97801.09;;;16.60;57.60
43741;BME280;29352;48.708;9.290;2023-07-22T06:18:00;97804.41;;;17.10;55.78
43741;BME280;29352;48.708;9.290;2023-07-22T06:20:26;97809.06;;;16.18;58.13
43741;BME280;29352;48.708;9.290;2023-07-22T06:22:52;97808.69;;;17.06;55.63
43741;BME280;29352;48.708;9.290;2023-07-22T06:25:18;97813.34;;;15.65;59.04
43741;BME280;29352;48.708;9.290;2023-07-22T06:27:43;97816.31;;;17.77;54.54
43741;BME280;29352;48.708;9.290;2023-07-22T06:30:09;97818.88;;;18.50;53.82
43741;BME280;29352;48.708;9.290;2023-07-22T06:32:37;97814.63;;;17.08;55.61
43741;BME280;29352;48.708;9.290;2023-07-22T06:35:03;97820.25;;;17.48;55.22
43741;BME280;29352;48.708;9.290;2023-07-22T06:37:29;97829.97;;;18.58;52.78
43741;BME280;29352;48.708;9.290;2023-07-22T06:39:55;97824.81;;;18.72;53.00
43741;BME280;29352;48.708;9.290;2023-07-22T06:42:21;97834.91;;;20.12;52.66
43741;BME280;29352;48.708;9.290;2023-07-22T06:44:46;97836.72;;;18.76;52.96
43741;BME280;29352;48.708;9.290;2023-07-22T06:47:12;97826.13;;;19.10;52.99
43741;BME280;29352;48.708;9.290;2023-07-22T06:49:38;97834.16;;;19.41;51.93
43741;BME280;29352;48.708;9.290;2023-07-22T06:52:03;97830.91;;;21.36;49.04
43741;BME280;29352;48.708;9.290;2023-07-22T06:54:29;97826.69;;;20.61;49.14
43741;BME280;29352;48.708;9.290;2023-07-22T06:56:55;97828.13;;;20.53;50.73
43741;BME280;29352;48.708;9.290;2023-07-22T06:59:20;97825.84;;;19.87;51.17
43741;BME280;29352;48.708;9.290;2023-07-22T07:01:46;97834.53;;;18.83;52.62
43741;BME280;29352;48.708;9.290;2023-07-22T07:04:11;97823.75;;;22.44;46.94
43741;BME280;29352;48.708;9.290;2023-07-22T07:06:36;97827.50;;;20.96;49.14
43741;BME280;29352;48.708;9.290;2023-07-22T07:09:04;97829.25;;;20.08;50.88
43741;BME280;29352;48.708;9.290;2023-07-22T07:11:31;97831.47;;;20.45;49.71
43741;BME280;29352;48.708;9.290;2023-07-22T07:13:57;97828.31;;;19.83;51.92
43741;BME280;29352;48.708;9.290;2023-07-22T07:16:27;97822.72;;;20.53;49.44
43741;BME280;29352;48.708;9.290;2023-07-22T07:18:54;97820.19;;;21.20;48.43
43741;BME280;29352;48.708;9.290;2023-07-22T07:21:21;97817.34;;;22.54;45.84
43741;BME280;29352;48.708;9.290;2023-07-22T07:23:48;97816.03;;;22.65;46.76
43741;BME280;29352;48.708;9.290;2023-07-22T07:26:14;97816.81;;;22.85;46.34
43741;BME280;29352;48.708;9.290;2023-07-22T07:28:41;97826.03;;;22.18;47.83
43741;BME280;29352;48.708;9.290;2023-07-22T07:31:07;97811.69;;;24.30;44.77
43741;BME280;29352;48.708;9.290;2023-07-22T07:33:33;97811.66;;;23.57;45.10
43741;BME280;29352;48.708;9.290;2023-07-22T07:36:00;97814.03;;;23.45;44.77
43741;BME280;29352;48.708;9.290;2023-07-22T07:38:25;97812.91;;;21.83;47.60
43741;BME280;29352;48.708;9.290;2023-07-22T07:40:57;97816.56;;;23.55;45.58
43741;BME280;29352;48.708;9.290;2023-07-22T07:43:24;97808.47;;;23.78;44.51
43741;BME280;29352;48.708;9.290;2023-07-22T07:46:17;97806.53;;;23.92;45.93
43741;BME280;29352;48.708;9.290;2023-07-22T07:48:49;97805.53;;;24.69;43.43
43741;BME280;29352;48.708;9.290;2023-07-22T07:51:15;97806.47;;;24.42;42.85
43741;BME280;29352;48.708;9.290;2023-07-22T07:53:43;97807.72;;;23.50;44.40
43741;BME280;29352;48.708;9.290;2023-07-22T07:56:10;97805.25;;;24.26;42.09
43741;BME280;29352;48.708;9.290;2023-07-22T07:58:37;97805.88;;;24.68;42.29
43741;BME280;29352;48.708;9.290;2023-07-22T08:01:04;97799.81;;;26.89;39.82
43741;BME280;29352;48.708;9.290;2023-07-22T08:03:32;97784.13;;;25.82;40.77
43741;BME280;29352;48.708;9.290;2023-07-22T08:05:58;97788.81;;;25.99;40.71
43741;BME280;29352;48.708;9.290;2023-07-22T08:08:24;97795.28;;;25.37;42.78
43741;BME280;29352;48.708;9.290;2023-07-22T08:11:00;97797.09;;;25.11;41.73
43741;BME280;29352;48.708;9.290;2023-07-22T08:13:30;97795.19;;;24.35;41.43
43741;BME280;29352;48.708;9.290;2023-07-22T08:15:57;97787.75;;;24.27;41.91
43741;BME280;29352;48.708;9.290;2023-07-22T08:18:24;97791.59;;;24.26;42.15
43741;BME280;29352;48.708;9.290;2023-07-22T08:20:51;97784.47;;;25.23;41.51
43741;BME280;29352;48.708;9.290;2023-07-22T08:23:18;97791.47;;;24.76;40.54
43741;BME280;29352;48.708;9.290;2023-07-22T08:25:44;97786.03;;;26.60;38.74
43741;BME280;29352;48.708;9.290;2023-07-22T08:28:09;97785.59;;;26.32;39.42
43741;BME280;29352;48.708;9.290;2023-07-22T08:30:35;97781.84;;;25.84;38.86
43741;BME280;29352;48.708;9.290;2023-07-22T08:33:01;97783.34;;;26.25;38.65
43741;BME280;29352;48.708;9.290;2023-07-22T08:35:26;97781.72;;;26.24;38.92
43741;BME280;29352;48.708;9.290;2023-07-22T08:37:51;97774.38;;;25.50;39.56
43741;BME280;29352;48.708;9.290;2023-07-22T08:40:18;97777.25;;;25.28;38.61
43741;BME280;29352;48.708;9.290;2023-07-22T08:42:45;97766.88;;;25.56;38.51
43741;BME280;29352;48.708;9.290;2023-07-22T08:45:14;97768.81;;;25.07;39.75
43741;BME280;29352;48.708;9.290;2023-07-22T08:47:46;97771.06;;;24.73;38.83
43741;BME280;29352;48.708;9.290;2023-07-22T08:50:19;97777.88;;;25.33;38.62
43741;BME280;29352;48.708;9.290;2023-07-22T08:52:46;97772.72;;;23.43;40.27
43741;BME280;29352;48.708;9.290;2023-07-22T08:55:14;97765.31;;;25.15;38.91
43741;BME280;29352;48.708;9.290;2023-07-22T08:57:41;97755.38;;;25.19;37.51
43741;BME280;29352;48.708;9.290;2023-07-22T09:00:07;97769.16;;;25.14;38.66
43741;BME280;29352;48.708;9.290;2023-07-22T09:02:35;97761.03;;;25.40;38.49
43741;BME280;29352;48.708;9.290;2023-07-22T09:05:02;97761.28;;;26.13;36.86
43741;BME280;29352;48.708;9.290;2023-07-22T09:07:29;97769.81;;;25.94;37.99
43741;BME280;29352;48.708;9.290;2023-07-22T09:09:57;97759.38;;;26.48;36.52
43741;BME280;29352;48.708;9.290;2023-07-22T09:12:24;97752.38;;;25.46;37.48
43741;BME280;29352;48.708;9.290;2023-07-22T09:14:52;97755.03;;;26.12;37.04
43741;BME280;29352;48.708;9.290;2023-07-22T09:17:17;97761.66;;;26.03;36.44
43741;BME280;29352;48.708;9.290;2023-07-22T09:19:43;97741.94;;;25.48;37.12
43741;BME280;29352;48.708;9.290;2023-07-22T09:22:08;97753.97;;;23.92;37.45
43741;BME280;29352;48.708;9.290;2023-07-22T09:24:34;97751.50;;;24.04;36.91
43741;BME280;29352;48.708;9.290;2023-07-22T09:26:59;97756.84;;;22.76;38.45
43741;BME280;29352;48.708;9.290;2023-07-22T09:29:37;97749.38;;;22.68;38.16
43741;BME280;29352;48.708;9.290;2023-07-22T09:32:05;97746.44;;;23.75;37.93
43741;BME280;29352;48.708;9.290;2023-07-22T09:34:31;97759.84;;;22.61;39.07
43741;BME280;29352;48.708;9.290;2023-07-22T09:36:58;97754.16;;;22.25;39.49
43741;BME280;29352;48.708;9.290;2023-07-22T09:39:29;97758.97;;;21.14;41.50
43741;BME280;29352;48.708;9.290;2023-07-22T09:41:55;97754.44;;;21.05;41.46
43741;BME280;29352;48.708;9.290;2023-07-22T09:44:29;97756.06;;;21.06;41.21
43741;BME280;29352;48.708;9.290;2023-07-22T09:46:56;97760.56;;;20.91;41.48
43741;BME280;29352;48.708;9.290;2023-07-22T09:49:21;97760.56;;;20.91;41.66
43741;BME280;29352;48.708;9.290;2023-07-22T09:51:47;97754.56;;;20.65;41.34
43741;BME280;29352;48.708;9.290;2023-07-22T09:54:16;97754.72;;;20.50;41.55
43741;BME280;29352;48.708;9.290;2023-07-22T09:56:46;97759.06;;;20.12;42.81
43741;BME280;29352;48.708;9.290;2023-07-22T09:59:14;97752.19;;;20.59;43.00
43741;BME280;29352;48.708;9.290;2023-07-22T10:01:46;97760.50;;;20.96;42.13
43741;BME280;29352;48.708;9.290;2023-07-22T10:04:16;97757.78;;;20.96;42.03
43741;BME280;29352;48.708;9.290;2023-07-22T10:06:43;97747.66;;;21.07;41.50
43741;BME280;29352;48.708;9.290;2023-07-22T10:09:10;97752.66;;;20.37;41.85
43741;BME280;29352;48.708;9.290;2023-07-22T10:11:39;97749.31;;;21.03;41.42
43741;BME280;29352;48.708;9.290;2023-07-22T10:14:05;97758.63;;;21.64;40.24
43741;BME280;29352;48.708;9.290;2023-07-22T10:16:31;97751.22;;;22.40;40.90
43741;BME280;29352;48.708;9.290;2023-07-22T10:18:58;97747.38;;;22.74;38.77
43741;BME280;29352;48.708;9.290;2023-07-22T10:21:25;97733.56;;;23.89;38.26
43741;BME280;29352;48.708;9.290;2023-07-22T10:23:51;97729.34;;;23.83;37.82
43741;BME280;29352;48.708;9.290;2023-07-22T10:26:18;97750.00;;;22.79;39.78
43741;BME280;29352;48.708;9.290;2023-07-22T10:28:46;97750.44;;;22.20;40.40
43741;BME280;29352;48.708;9.290;2023-07-22T10:31:16;97737.38;;;23.66;38.58
43741;BME280;29352;48.708;9.290;2023-07-22T10:33:47;97740.44;;;24.23;37.84
43741;BME280;29352;48.708;9.290;2023-07-22T10:36:15;97728.94;;;24.88;37.94
43741;BME280;29352;48.708;9.290;2023-07-22T10:38:43;97728.66;;;24.14;39.07
43741;BME280;29352;48.708;9.290;2023-07-22T10:41:16;97724.13;;;24.54;37.10
43741;BME280;29352;48.708;9.290;2023-07-22T10:43:56;97731.25;;;25.04;36.74
43741;BME280;29352;48.708;9.290;2023-07-22T10:46:37;97723.28;;;24.53;37.39
43741;BME280;29352;48.708;9.290;2023-07-22T10:49:13;97726.88;;;23.73;37.88
43741;BME280;29352;48.708;9.290;2023-07-22T10:51:41;97718.72;;;23.95;37.48
43741;BME280;29352;48.708;9.290;2023-07-22T10:54:14;97713.59;;;24.16;37.60
43741;BME280;29352;48.708;9.290;2023-07-22T10:56:42;97718.09;;;21.67;38.92
43741;BME280;29352;48.708;9.290;2023-07-22T10:59:12;97725.13;;;22.72;38.29
43741;BME280;29352;48.708;9.290;2023-07-22T11:01:39;97708.28;;;21.90;39.72
43741;BME280;29352;48.708;9.290;2023-07-22T11:11:57;97718.44;;;21.80;41.09
43741;BME280;29352;48.708;9.290;2023-07-22T11:14:26;97709.09;;;21.53;40.39
43741;BME280;29352;48.708;9.290;2023-07-22T11:16:54;97710.56;;;21.45;41.66
43741;BME280;29352;48.708;9.290;2023-07-22T11:19:23;97700.75;;;22.34;39.90
43741;BME280;29352;48.708;9.290;2023-07-22T11:21:51;97695.69;;;21.76;40.14
43741;BME280;29352;48.708;9.290;2023-07-22T11:24:19;97708.88;;;21.87;41.54
43741;BME280;29352;48.708;9.290;2023-07-22T11:26:46;97696.59;;;22.69;39.94
43741;BME280;29352;48.708;9.290;2023-07-22T11:29:13;97677.88;;;23.23;38.99
43741;BME280;29352;48.708;9.290;2023-07-22T11:31:42;97680.28;;;22.83;39.10
43741;BME280;29352;48.708;9.290;2023-07-22T11:34:11;97682.81;;;22.79;39.17
43741;BME280;29352;48.708;9.290;2023-07-22T11:36:38;97689.66;;;22.90;38.67
43741;BME280;29352;48.708;9.290;2023-07-22T11:39:06;97677.88;;;23.09;39.01
43741;BME280;29352;48.708;9.290;2023-07-22T11:41:34;97684.81;;;23.29;39.27
43741;BME280;29352;48.708;9.290;2023-07-22T11:44:01;97682.78;;;23.34;38.86
43741;BME280;29352;48.708;9.290;2023-07-22T11:46:34;97674.13;;;23.32;40.35
43741;BME280;29352;48.708;9.290;2023-07-22T11:49:11;97674.91;;;23.33;40.20
43741;BME280;29352;48.708;9.290;2023-07-22T11:51:42;97666.75;;;23.69;40.84
43741;BME280;29352;48.708;9.290;2023-07-22T11:54:08;97667.69;;;23.65;40.82
43741;BME280;29352;48.708;9.290;2023-07-22T11:56:34;97665.72;;;23.79;39.20
43741;BME280;29352;48.708;9.290;2023-07-22T11:58:59;97662.91;;;22.98;40.72
43741;BME280;29352;48.708;9.290;2023-07-22T12:01:32;97655.13;;;23.55;40.33
43741;BME280;29352;48.708;9.290;2023-07-22T12:03:58;97656.66;;;23.70;39.45
43741;BME280;29352;48.708;9.290;2023-07-22T12:06:27;97643.13;;;22.92;40.11
43741;BME280;29352;48.708;9.290;2023-07-22T12:08:53;97655.19;;;23.64;40.11
43741;BME280;29352;48.708;9.290;2023-07-22T12:11:23;97645.16;;;23.73;38.93
43741;BME280;29352;48.708;9.290;2023-07-22T12:16:42;97643.25;;;23.37;39.18
43741;BME280;29352;48.708;9.290;2023-07-22T12:19:08;97637.69;;;22.51;40.90
43741;BME280;29352;48.708;9.290;2023-07-22T12:21:35;97639.81;;;22.95;41.66
43741;BME280;29352;48.708;9.290;2023-07-22T12:24:01;97637.75;;;23.14;39.79
43741;BME280;29352;48.708;9.290;2023-07-22T12:26:29;97628.94;;;22.95;40.53
43741;BME280;29352;48.708;9.290;2023-07-22T12:28:55;97646.97;;;22.77;40.20
43741;BME280;29352;48.708;9.290;2023-07-22T12:31:20;97632.13;;;22.70;40.12
43741;BME280;29352;48.708;9.290;2023-07-22T12:33:46;97634.97;;;21.90;40.60
43741;BME280;29352;48.708;9.290;2023-07-22T12:36:11;97631.44;;;22.78;40.62
43741;BME280;29352;48.708;9.290;2023-07-22T12:38:37;97634.94;;;23.42;41.21
43741;BME280;29352;48.708;9.290;2023-07-22T12:41:03;97624.44;;;23.27;38.99
43741;BME280;29352;48.708;9.290;2023-07-22T12:43:29;97614.78;;;22.93;39.97
43741;BME280;29352;48.708;9.290;2023-07-22T12:45:55;97622.28;;;22.60;40.46
43741;BME280;29352;48.708;9.290;2023-07-22T12:48:21;97612.59;;;22.81;39.91
43741;BME280;29352;48.708;9.290;2023-07-22T12:50:47;97618.53;;;22.42;39.29
43741;BME280;29352;48.708;9.290;2023-07-22T12:53:13;97613.97;;;21.77;39.83
43741;BME280;29352;48.708;9.290;2023-07-22T12:55:38;97619.53;;;21.10;40.83
43741;BME280;29352;48.708;9.290;2023-07-22T12:58:04;97608.00;;;21.94;39.16
43741;BME280;29352;48.708;9.290;2023-07-22T13:00:30;97588.13;;;22.81;38.49
43741;BME280;29352;48.708;9.290;2023-07-22T13:02:55;97603.47;;;22.50;39.53
43741;BME280;29352;48.708;9.290;2023-07-22T13:05:22;97605.84;;;22.37;39.49
43741;BME280;29352;48.708;9.290;2023-07-22T13:07:48;97598.69;;;22.69;39.15
43741;BME280;29352;48.708;9.290;2023-07-22T13:10:14;97607.56;;;23.02;38.83
43741;BME280;29352;48.708;9.290;2023-07-22T13:12:43;97600.50;;;23.37;38.76
43741;BME280;29352;48.708;9.290;2023-07-22T13:15:09;97598.88;;;23.50;38.55